sensor_id;sensor_type;location;lat;lon;timestamp;P1;durP1;ratioP1;P2;durP2;ratioP2
76346;SDS011;73309;48.818;9.806;2023-11-22T00:02:23;4.93;;;4.43;;
76346;SDS011;73309;48.818;9.806;2023-11-22T00:04:48;5.17;;;4.67;;
76346;SDS011;73309;48.818;9.806;2023-11-22T00:07:14;5.67;;;4.47;;
76346;SDS011;73309;48.818;9.806;2023-11-22T00:09:39;5.10;;;4.60;;
76346;SDS011;73309;48.818;9.806;2023-11-22T00:12:06;5.33;;;4.70;;
76346;SDS011;73309;48.818;9.806;2023-11-22T00:14:32;5.10;;;4.60;;
76346;SDS011;73309;48.818;9.806;2023-11-22T00:16:57;4.63;;;4.23;;
76346;SDS011;73309;48.818;9.806;2023-11-22T00:19:22;5.60;;;4.40;;
76346;SDS011;73309;48.818;9.806;2023-11-22T00:21:48;5.40;;;4.57;;
76346;SDS011;73309;48.818;9.806;2023-11-22T00:24:13;4.83;;;4.43;;
76346;SDS011;73309;48.818;9.806;2023-11-22T00:26:39;4.73;;;4.33;;
76346;SDS011;73309;48.818;9.806;2023-11-22T00:29:06;4.43;;;4.03;;
76346;SDS011;73309;48.818;9.806;2023-11-22T00:31:31;4.60;;;4.10;;
76346;SDS011;73309;48.818;9.806;2023-11-22T00:33:57;4.53;;;4.13;;
76346;SDS011;73309;48.818;9.806;2023-11-22T00:36:22;4.30;;;3.90;;
76346;SDS011;73309;48.818;9.806;2023-11-22T00:38:48;4.57;;;4.17;;
76346;SDS011;73309;48.818;9.806;2023-11-22T00:41:13;4.37;;;4.00;;
76346;SDS011;73309;48.818;9.806;2023-11-22T00:43:38;4.40;;;4.00;;
76346;SDS011;73309;48.818;9.806;2023-11-22T00:46:05;4.33;;;3.93;;
76346;SDS011;73309;48.818;9.806;2023-11-22T00:48:31;4.80;;;4.23;;
76346;SDS011;73309;48.818;9.806;2023-11-22T00:50:56;4.40;;;4.00;;
76346;SDS011;73309;48.818;9.806;2023-11-22T00:53:21;4.20;;;3.80;;
76346;SDS011;73309;48.818;9.806;2023-11-22T00:55:47;4.83;;;4.03;;
76346;SDS011;73309;48.818;9.806;2023-11-22T00:58:12;4.60;;;4.17;;
76346;SDS011;73309;48.818;9.806;2023-11-22T01:00:37;3.77;;;3.47;;
76346;SDS011;73309;48.818;9.806;2023-11-22T01:03:04;3.90;;;3.50;;
76346;SDS011;73309;48.818;9.806;2023-11-22T01:05:29;3.90;;;3.53;;
76346;SDS011;73309;48.818;9.806;2023-11-22T01:07:55;4.40;;;3.90;;
76346;SDS011;73309;48.818;9.806;2023-11-22T01:10:20;4.50;;;4.10;;
76346;SDS011;73309;48.818;9.806;2023-11-22T01:12:46;4.37;;;3.67;;
76346;SDS011;73309;48.818;9.806;2023-11-22T01:15:11;4.00;;;3.70;;
76346;SDS011;73309;48.818;9.806;2023-11-22T01:17:36;4.50;;;3.60;;
76346;SDS011;73309;48.818;9.806;2023-11-22T01:20:04;3.83;;;3.53;;
76346;SDS011;73309;48.818;9.806;2023-11-22T01:22:30;3.63;;;3.17;;
76346;SDS011;73309;48.818;9.806;2023-11-22T01:24:55;4.00;;;3.67;;
76346;SDS011;73309;48.818;9.806;2023-11-22T01:27:20;3.50;;;3.20;;
76346;SDS011;73309;48.818;9.806;2023-11-22T01:29:46;4.33;;;3.40;;
76346;SDS011;73309;48.818;9.806;2023-11-22T01:32:11;4.07;;;3.77;;
76346;SDS011;73309;48.818;9.806;2023-11-22T01:34:37;3.50;;;3.20;;
76346;SDS011;73309;48.818;9.806;2023-11-22T01:37:04;3.90;;;3.60;;
76346;SDS011;73309;48.818;9.806;2023-11-22T01:39:30;3.40;;;3.10;;
76346;SDS011;73309;48.818;9.806;2023-11-22T01:41:56;3.70;;;3.40;;
76346;SDS011;73309;48.818;9.806;2023-11-22T01:44:21;3.47;;;3.17;;
76346;SDS011;73309;48.818;9.806;2023-11-22T01:46:47;3.40;;;3.10;;
76346;SDS011;73309;48.818;9.806;2023-11-22T01:49:12;3.13;;;2.83;;
76346;SDS011;73309;48.818;9.806;2023-11-22T01:51:38;3.30;;;3.00;;
76346;SDS011;73309;48.818;9.806;2023-11-22T01:54:06;3.60;;;3.30;;
76346;SDS011;73309;48.818;9.806;2023-11-22T01:56:33;3.73;;;3.20;;
76346;SDS011;73309;48.818;9.806;2023-11-22T01:59:01;3.47;;;3.17;;
76346;SDS011;73309;48.818;9.806;2023-11-22T02:01:26;3.23;;;2.90;;
76346;SDS011;73309;48.818;9.806;2023-11-22T02:03:52;3.67;;;3.37;;
76346;SDS011;73309;48.818;9.806;2023-11-22T02:06:17;3.30;;;3.00;;
76346;SDS011;73309;48.818;9.806;2023-11-22T02:08:43;3.60;;;3.30;;
76346;SDS011;73309;48.818;9.806;2023-11-22T02:11:09;3.30;;;3.00;;
76346;SDS011;73309;48.818;9.806;2023-11-22T02:13:35;3.20;;;2.90;;
76346;SDS011;73309;48.818;9.806;2023-11-22T02:16:01;3.30;;;3.00;;
76346;SDS011;73309;48.818;9.806;2023-11-22T02:18:26;3.43;;;3.10;;
76346;SDS011;73309;48.818;9.806;2023-11-22T02:20:52;3.37;;;3.07;;
76346;SDS011;73309;48.818;9.806;2023-11-22T02:23:19;3.33;;;3.00;;
76346;SDS011;73309;48.818;9.806;2023-11-22T02:25:44;3.53;;;3.23;;
76346;SDS011;73309;48.818;9.806;2023-11-22T02:28:10;4.33;;;3.93;;
76346;SDS011;73309;48.818;9.806;2023-11-22T02:30:35;3.40;;;3.10;;
76346;SDS011;73309;48.818;9.806;2023-11-22T02:33:01;3.40;;;3.10;;
76346;SDS011;73309;48.818;9.806;2023-11-22T02:35:26;3.47;;;3.03;;
76346;SDS011;73309;48.818;9.806;2023-11-22T02:37:52;3.83;;;3.43;;
76346;SDS011;73309;48.818;9.806;2023-11-22T02:40:19;3.90;;;3.57;;
76346;SDS011;73309;48.818;9.806;2023-11-22T02:42:46;3.40;;;3.10;;
76346;SDS011;73309;48.818;9.806;2023-11-22T02:45:11;4.37;;;3.97;;
76346;SDS011;73309;48.818;9.806;2023-11-22T02:47:37;3.20;;;2.90;;
76346;SDS011;73309;48.818;9.806;2023-11-22T02:50:02;3.40;;;3.10;;
76346;SDS011;73309;48.818;9.806;2023-11-22T02:52:28;3.20;;;2.90;;
76346;SDS011;73309;48.818;9.806;2023-11-22T02:54:54;3.57;;;3.20;;
76346;SDS011;73309;48.818;9.806;2023-11-22T02:57:20;3.20;;;2.90;;
76346;SDS011;73309;48.818;9.806;2023-11-22T02:59:46;3.17;;;2.87;;
76346;SDS011;73309;48.818;9.806;2023-11-22T03:02:11;3.70;;;3.40;;
76346;SDS011;73309;48.818;9.806;2023-11-22T03:04:37;4.40;;;3.40;;
76346;SDS011;73309;48.818;9.806;2023-11-22T03:07:02;3.37;;;3.07;;
76346;SDS011;73309;48.818;9.806;2023-11-22T03:09:28;4.63;;;3.33;;
76346;SDS011;73309;48.818;9.806;2023-11-22T03:11:54;3.70;;;3.40;;
76346;SDS011;73309;48.818;9.806;2023-11-22T03:14:20;3.13;;;2.87;;
76346;SDS011;73309;48.818;9.806;2023-11-22T03:16:46;3.10;;;2.80;;
76346;SDS011;73309;48.818;9.806;2023-11-22T03:19:11;3.10;;;2.80;;
76346;SDS011;73309;48.818;9.806;2023-11-22T03:21:37;3.60;;;3.30;;
76346;SDS011;73309;48.818;9.806;2023-11-22T03:24:02;3.27;;;2.90;;
76346;SDS011;73309;48.818;9.806;2023-11-22T03:26:28;3.57;;;3.27;;
76346;SDS011;73309;48.818;9.806;2023-11-22T03:28:53;3.60;;;3.30;;
76346;SDS011;73309;48.818;9.806;2023-11-22T03:31:20;3.40;;;3.10;;
76346;SDS011;73309;48.818;9.806;2023-11-22T03:33:45;3.70;;;3.40;;
76346;SDS011;73309;48.818;9.806;2023-11-22T03:36:11;3.33;;;3.00;;
76346;SDS011;73309;48.818;9.806;2023-11-22T03:38:36;3.30;;;3.00;;
76346;SDS011;73309;48.818;9.806;2023-11-22T03:41:02;3.20;;;2.90;;
76346;SDS011;73309;48.818;9.806;2023-11-22T03:43:27;3.40;;;3.10;;
76346;SDS011;73309;48.818;9.806;2023-11-22T03:45:52;2.93;;;2.63;;
76346;SDS011;73309;48.818;9.806;2023-11-22T03:48:19;2.90;;;2.70;;
76346;SDS011;73309;48.818;9.806;2023-11-22T03:50:44;3.40;;;3.10;;
76346;SDS011;73309;48.818;9.806;2023-11-22T03:53:10;3.13;;;2.83;;
76346;SDS011;73309;48.818;9.806;2023-11-22T03:55:35;3.10;;;2.80;;
76346;SDS011;73309;48.818;9.806;2023-11-22T03:58:01;2.97;;;2.70;;
76346;SDS011;73309;48.818;9.806;2023-11-22T04:00:26;3.37;;;2.80;;
76346;SDS011;73309;48.818;9.806;2023-11-22T04:02:52;2.83;;;2.63;;
76346;SDS011;73309;48.818;9.806;2023-11-22T04:05:18;2.90;;;2.70;;
76346;SDS011;73309;48.818;9.806;2023-11-22T04:07:44;3.23;;;2.93;;
76346;SDS011;73309;48.818;9.806;2023-11-22T04:10:09;2.97;;;2.77;;
76346;SDS011;73309;48.818;9.806;2023-11-22T04:12:35;2.87;;;2.60;;
76346;SDS011;73309;48.818;9.806;2023-11-22T04:15:00;2.70;;;2.50;;
76346;SDS011;73309;48.818;9.806;2023-11-22T04:17:25;2.90;;;2.70;;
76346;SDS011;73309;48.818;9.806;2023-11-22T04:19:51;3.17;;;2.90;;
76346;SDS011;73309;48.818;9.806;2023-11-22T04:22:18;2.73;;;2.53;;
76346;SDS011;73309;48.818;9.806;2023-11-22T04:24:43;2.70;;;2.50;;
76346;SDS011;73309;48.818;9.806;2023-11-22T04:27:08;2.63;;;2.43;;
76346;SDS011;73309;48.818;9.806;2023-11-22T04:29:34;2.80;;;2.60;;
76346;SDS011;73309;48.818;9.806;2023-11-22T04:31:59;2.87;;;2.67;;
76346;SDS011;73309;48.818;9.806;2023-11-22T04:34:24;2.87;;;2.67;;
76346;SDS011;73309;48.818;9.806;2023-11-22T04:36:50;3.50;;;2.70;;
76346;SDS011;73309;48.818;9.806;2023-11-22T04:39:16;3.00;;;2.70;;
76346;SDS011;73309;48.818;9.806;2023-11-22T04:41:42;2.70;;;2.50;;
76346;SDS011;73309;48.818;9.806;2023-11-22T04:44:07;2.70;;;2.50;;
76346;SDS011;73309;48.818;9.806;2023-11-22T04:46:33;2.90;;;2.70;;
76346;SDS011;73309;48.818;9.806;2023-11-22T04:48:58;3.03;;;2.60;;
76346;SDS011;73309;48.818;9.806;2023-11-22T04:51:24;2.80;;;2.60;;
76346;SDS011;73309;48.818;9.806;2023-11-22T04:53:49;3.40;;;3.10;;
76346;SDS011;73309;48.818;9.806;2023-11-22T04:56:16;2.80;;;2.60;;
76346;SDS011;73309;48.818;9.806;2023-11-22T04:58:41;2.70;;;2.50;;
76346;SDS011;73309;48.818;9.806;2023-11-22T05:01:07;2.93;;;2.63;;
76346;SDS011;73309;48.818;9.806;2023-11-22T05:03:32;2.80;;;2.60;;
76346;SDS011;73309;48.818;9.806;2023-11-22T05:05:58;3.23;;;2.93;;
76346;SDS011;73309;48.818;9.806;2023-11-22T05:08:23;3.23;;;2.53;;
76346;SDS011;73309;48.818;9.806;2023-11-22T05:10:49;2.57;;;2.37;;
76346;SDS011;73309;48.818;9.806;2023-11-22T05:13:16;3.20;;;2.90;;
76346;SDS011;73309;48.818;9.806;2023-11-22T05:15:41;2.90;;;2.70;;
76346;SDS011;73309;48.818;9.806;2023-11-22T05:18:06;3.00;;;2.70;;
76346;SDS011;73309;48.818;9.806;2023-11-22T05:20:32;2.90;;;2.70;;
76346;SDS011;73309;48.818;9.806;2023-11-22T05:22:57;3.13;;;2.83;;
76346;SDS011;73309;48.818;9.806;2023-11-22T05:25:22;3.27;;;2.77;;
76346;SDS011;73309;48.818;9.806;2023-11-22T05:27:48;2.97;;;2.60;;
76346;SDS011;73309;48.818;9.806;2023-11-22T05:30:15;2.80;;;2.50;;
76346;SDS011;73309;48.818;9.806;2023-11-22T05:32:40;2.70;;;2.50;;
76346;SDS011;73309;48.818;9.806;2023-11-22T05:35:06;2.93;;;2.63;;
76346;SDS011;73309;48.818;9.806;2023-11-22T05:37:32;3.20;;;2.67;;
76346;SDS011;73309;48.818;9.806;2023-11-22T05:39:57;3.17;;;2.87;;
76346;SDS011;73309;48.818;9.806;2023-11-22T05:42:22;2.60;;;2.40;;
76346;SDS011;73309;48.818;9.806;2023-11-22T05:44:48;2.73;;;2.53;;
76346;SDS011;73309;48.818;9.806;2023-11-22T05:47:14;3.37;;;2.77;;
76346;SDS011;73309;48.818;9.806;2023-11-22T05:49:40;2.90;;;2.60;;
76346;SDS011;73309;48.818;9.806;2023-11-22T05:52:05;2.77;;;2.57;;
76346;SDS011;73309;48.818;9.806;2023-11-22T05:54:31;2.73;;;2.53;;
76346;SDS011;73309;48.818;9.806;2023-11-22T05:56:56;2.97;;;2.47;;
76346;SDS011;73309;48.818;9.806;2023-11-22T05:59:21;3.00;;;2.70;;
76346;SDS011;73309;48.818;9.806;2023-11-22T06:01:47;2.90;;;2.70;;
76346;SDS011;73309;48.818;9.806;2023-11-22T06:04:13;2.60;;;2.40;;
76346;SDS011;73309;48.818;9.806;2023-11-22T06:06:39;3.00;;;2.77;;
76346;SDS011;73309;48.818;9.806;2023-11-22T06:09:04;3.33;;;3.03;;
76346;SDS011;73309;48.818;9.806;2023-11-22T06:11:30;2.77;;;2.40;;
76346;SDS011;73309;48.818;9.806;2023-11-22T06:13:55;3.20;;;2.90;;
76346;SDS011;73309;48.818;9.806;2023-11-22T06:16:20;3.47;;;3.00;;
76346;SDS011;73309;48.818;9.806;2023-11-22T06:18:46;3.93;;;3.20;;
76346;SDS011;73309;48.818;9.806;2023-11-22T06:21:12;3.03;;;2.73;;
76346;SDS011;73309;48.818;9.806;2023-11-22T06:23:38;3.70;;;3.37;;
76346;SDS011;73309;48.818;9.806;2023-11-22T06:26:03;3.03;;;2.73;;
76346;SDS011;73309;48.818;9.806;2023-11-22T06:28:29;2.80;;;2.60;;
76346;SDS011;73309;48.818;9.806;2023-11-22T06:30:54;2.83;;;2.63;;
76346;SDS011;73309;48.818;9.806;2023-11-22T06:33:19;3.23;;;2.93;;
76346;SDS011;73309;48.818;9.806;2023-11-22T06:35:45;2.70;;;2.50;;
76346;SDS011;73309;48.818;9.806;2023-11-22T06:38:12;2.70;;;2.50;;
76346;SDS011;73309;48.818;9.806;2023-11-22T06:40:37;3.20;;;2.90;;
76346;SDS011;73309;48.818;9.806;2023-11-22T06:43:02;3.23;;;2.93;;
76346;SDS011;73309;48.818;9.806;2023-11-22T06:45:28;2.70;;;2.50;;
76346;SDS011;73309;48.818;9.806;2023-11-22T06:47:53;2.97;;;2.70;;
76346;SDS011;73309;48.818;9.806;2023-11-22T06:50:18;3.17;;;2.60;;
76346;SDS011;73309;48.818;9.806;2023-11-22T06:52:44;2.80;;;2.60;;
76346;SDS011;73309;48.818;9.806;2023-11-22T06:55:10;3.50;;;3.20;;
76346;SDS011;73309;48.818;9.806;2023-11-22T06:57:36;3.20;;;2.90;;
76346;SDS011;73309;48.818;9.806;2023-11-22T07:00:03;3.17;;;2.70;;
76346;SDS011;73309;48.818;9.806;2023-11-22T07:02:31;2.83;;;2.63;;
76346;SDS011;73309;48.818;9.806;2023-11-22T07:04:56;2.60;;;2.40;;
76346;SDS011;73309;48.818;9.806;2023-11-22T07:07:22;2.70;;;2.50;;
76346;SDS011;73309;48.818;9.806;2023-11-22T07:09:47;2.53;;;2.33;;
76346;SDS011;73309;48.818;9.806;2023-11-22T07:12:14;2.50;;;2.30;;
76346;SDS011;73309;48.818;9.806;2023-11-22T07:14:39;2.77;;;2.57;;
76346;SDS011;73309;48.818;9.806;2023-11-22T07:17:04;3.30;;;2.70;;
76346;SDS011;73309;48.818;9.806;2023-11-22T07:19:30;2.90;;;2.70;;
76346;SDS011;73309;48.818;9.806;2023-11-22T07:21:55;3.67;;;2.80;;
76346;SDS011;73309;48.818;9.806;2023-11-22T07:24:21;2.80;;;2.60;;
76346;SDS011;73309;48.818;9.806;2023-11-22T07:26:46;3.00;;;2.70;;
76346;SDS011;73309;48.818;9.806;2023-11-22T07:29:13;2.50;;;2.30;;
76346;SDS011;73309;48.818;9.806;2023-11-22T07:31:38;3.00;;;2.67;;
76346;SDS011;73309;48.818;9.806;2023-11-22T07:34:04;2.90;;;2.70;;
76346;SDS011;73309;48.818;9.806;2023-11-22T07:36:29;2.80;;;2.60;;
76346;SDS011;73309;48.818;9.806;2023-11-22T07:38:54;2.80;;;2.60;;
76346;SDS011;73309;48.818;9.806;2023-11-22T07:41:20;2.73;;;2.53;;
76346;SDS011;73309;48.818;9.806;2023-11-22T07:43:45;2.90;;;2.43;;
76346;SDS011;73309;48.818;9.806;2023-11-22T07:46:12;3.00;;;2.70;;
76346;SDS011;73309;48.818;9.806;2023-11-22T07:48:37;2.90;;;2.70;;
76346;SDS011;73309;48.818;9.806;2023-11-22T07:51:03;2.67;;;2.47;;
76346;SDS011;73309;48.818;9.806;2023-11-22T07:53:28;2.83;;;2.53;;
76346;SDS011;73309;48.818;9.806;2023-11-22T07:55:54;2.80;;;2.60;;
76346;SDS011;73309;48.818;9.806;2023-11-22T07:58:19;2.80;;;2.60;;
76346;SDS011;73309;48.818;9.806;2023-11-22T08:00:44;3.63;;;3.13;;
76346;SDS011;73309;48.818;9.806;2023-11-22T08:03:11;3.60;;;3.30;;
76346;SDS011;73309;48.818;9.806;2023-11-22T08:05:36;3.33;;;3.00;;
76346;SDS011;73309;48.818;9.806;2023-11-22T08:08:03;3.00;;;2.70;;
76346;SDS011;73309;48.818;9.806;2023-11-22T08:10:28;2.70;;;2.50;;
76346;SDS011;73309;48.818;9.806;2023-11-22T08:12:54;3.43;;;3.10;;
76346;SDS011;73309;48.818;9.806;2023-11-22T08:15:19;3.20;;;2.90;;
76346;SDS011;73309;48.818;9.806;2023-11-22T08:17:45;3.27;;;2.97;;
76346;SDS011;73309;48.818;9.806;2023-11-22T08:20:12;3.03;;;2.80;;
76346;SDS011;73309;48.818;9.806;2023-11-22T08:22:37;3.17;;;2.87;;
76346;SDS011;73309;48.818;9.806;2023-11-22T08:25:03;3.73;;;3.43;;
76346;SDS011;73309;48.818;9.806;2023-11-22T08:27:29;2.60;;;2.40;;
76346;SDS011;73309;48.818;9.806;2023-11-22T08:29:54;2.70;;;2.50;;
76346;SDS011;73309;48.818;9.806;2023-11-22T08:32:19;2.80;;;2.60;;
76346;SDS011;73309;48.818;9.806;2023-11-22T08:34:45;3.10;;;2.80;;
76346;SDS011;73309;48.818;9.806;2023-11-22T08:37:11;3.80;;;3.40;;
76346;SDS011;73309;48.818;9.806;2023-11-22T08:39:37;3.40;;;3.10;;
76346;SDS011;73309;48.818;9.806;2023-11-22T08:42:02;3.70;;;3.30;;
76346;SDS011;73309;48.818;9.806;2023-11-22T08:44:28;3.00;;;2.77;;
76346;SDS011;73309;48.818;9.806;2023-11-22T08:46:54;3.60;;;3.30;;
76346;SDS011;73309;48.818;9.806;2023-11-22T08:49:19;4.60;;;3.30;;
76346;SDS011;73309;48.818;9.806;2023-11-22T08:51:44;4.10;;;3.77;;
76346;SDS011;73309;48.818;9.806;2023-11-22T08:54:11;2.90;;;2.70;;
76346;SDS011;73309;48.818;9.806;2023-11-22T08:56:37;3.60;;;2.80;;
76346;SDS011;73309;48.818;9.806;2023-11-22T08:59:02;3.40;;;3.10;;
76346;SDS011;73309;48.818;9.806;2023-11-22T09:01:27;4.20;;;3.60;;
76346;SDS011;73309;48.818;9.806;2023-11-22T09:03:53;4.00;;;3.60;;
76346;SDS011;73309;48.818;9.806;2023-11-22T09:06:18;3.20;;;2.90;;
76346;SDS011;73309;48.818;9.806;2023-11-22T09:08:43;2.90;;;2.70;;
76346;SDS011;73309;48.818;9.806;2023-11-22T09:11:10;3.10;;;2.80;;
76346;SDS011;73309;48.818;9.806;2023-11-22T09:13:38;3.40;;;3.10;;
76346;SDS011;73309;48.818;9.806;2023-11-22T09:16:04;3.60;;;3.20;;
76346;SDS011;73309;48.818;9.806;2023-11-22T09:18:30;3.00;;;2.73;;
76346;SDS011;73309;48.818;9.806;2023-11-22T09:20:56;3.50;;;3.20;;
76346;SDS011;73309;48.818;9.806;2023-11-22T09:23:21;3.83;;;3.30;;
76346;SDS011;73309;48.818;9.806;2023-11-22T09:25:46;3.43;;;3.10;;
76346;SDS011;73309;48.818;9.806;2023-11-22T09:28:13;3.40;;;3.10;;
76346;SDS011;73309;48.818;9.806;2023-11-22T09:30:39;3.60;;;3.30;;
76346;SDS011;73309;48.818;9.806;2023-11-22T09:33:05;3.47;;;3.17;;
76346;SDS011;73309;48.818;9.806;2023-11-22T09:35:32;3.40;;;2.90;;
76346;SDS011;73309;48.818;9.806;2023-11-22T09:37:57;3.30;;;3.00;;
76346;SDS011;73309;48.818;9.806;2023-11-22T09:40:22;3.90;;;3.50;;
76346;SDS011;73309;48.818;9.806;2023-11-22T09:42:48;3.77;;;3.00;;
76346;SDS011;73309;48.818;9.806;2023-11-22T09:45:15;3.30;;;3.00;;
76346;SDS011;73309;48.818;9.806;2023-11-22T09:47:40;3.50;;;3.20;;
76346;SDS011;73309;48.818;9.806;2023-11-22T09:50:06;3.33;;;2.90;;
76346;SDS011;73309;48.818;9.806;2023-11-22T09:52:34;3.73;;;3.43;;
76346;SDS011;73309;48.818;9.806;2023-11-22T09:55:05;3.20;;;2.90;;
76346;SDS011;73309;48.818;9.806;2023-11-22T09:57:31;3.30;;;3.00;;
76346;SDS011;73309;48.818;9.806;2023-11-22T09:59:58;3.20;;;2.90;;
76346;SDS011;73309;48.818;9.806;2023-11-22T10:02:27;3.17;;;2.87;;
76346;SDS011;73309;48.818;9.806;2023-11-22T10:04:52;3.93;;;3.27;;
76346;SDS011;73309;48.818;9.806;2023-11-22T10:07:18;2.80;;;2.60;;
76346;SDS011;73309;48.818;9.806;2023-11-22T10:09:43;3.37;;;3.07;;
76346;SDS011;73309;48.818;9.806;2023-11-22T10:12:08;3.10;;;2.80;;
76346;SDS011;73309;48.818;9.806;2023-11-22T10:14:37;3.83;;;3.47;;
76346;SDS011;73309;48.818;9.806;2023-11-22T10:17:02;4.00;;;3.60;;
76346;SDS011;73309;48.818;9.806;2023-11-22T10:19:29;3.67;;;3.37;;
76346;SDS011;73309;48.818;9.806;2023-11-22T10:22:04;4.87;;;3.13;;
76346;SDS011;73309;48.818;9.806;2023-11-22T10:24:30;3.50;;;3.20;;
76346;SDS011;73309;48.818;9.806;2023-11-22T10:26:56;4.00;;;3.40;;
76346;SDS011;73309;48.818;9.806;2023-11-22T10:29:21;3.90;;;3.33;;
76346;SDS011;73309;48.818;9.806;2023-11-22T10:31:46;3.10;;;2.87;;
76346;SDS011;73309;48.818;9.806;2023-11-22T10:34:12;3.10;;;2.80;;
76346;SDS011;73309;48.818;9.806;2023-11-22T10:36:39;3.30;;;3.00;;
76346;SDS011;73309;48.818;9.806;2023-11-22T10:39:04;3.37;;;3.07;;
76346;SDS011;73309;48.818;9.806;2023-11-22T10:41:33;3.30;;;3.00;;
76346;SDS011;73309;48.818;9.806;2023-11-22T10:44:02;4.10;;;3.70;;
76346;SDS011;73309;48.818;9.806;2023-11-22T10:46:29;3.90;;;3.10;;
76346;SDS011;73309;48.818;9.806;2023-11-22T10:48:55;3.47;;;3.17;;
76346;SDS011;73309;48.818;9.806;2023-11-22T10:51:20;3.10;;;2.83;;
76346;SDS011;73309;48.818;9.806;2023-11-22T10:53:49;3.80;;;3.50;;
76346;SDS011;73309;48.818;9.806;2023-11-22T10:56:16;3.87;;;3.27;;
76346;SDS011;73309;48.818;9.806;2023-11-22T10:58:44;4.07;;;3.63;;
76346;SDS011;73309;48.818;9.806;2023-11-22T11:01:12;4.10;;;3.70;;
76346;SDS011;73309;48.818;9.806;2023-11-22T11:03:39;3.87;;;3.27;;
76346;SDS011;73309;48.818;9.806;2023-11-22T11:06:07;4.33;;;3.93;;
76346;SDS011;73309;48.818;9.806;2023-11-22T11:08:34;3.87;;;3.47;;
76346;SDS011;73309;48.818;9.806;2023-11-22T11:11:04;4.10;;;3.60;;
76346;SDS011;73309;48.818;9.806;2023-11-22T11:13:29;4.47;;;3.27;;
76346;SDS011;73309;48.818;9.806;2023-11-22T11:15:55;4.60;;;3.60;;
76346;SDS011;73309;48.818;9.806;2023-11-22T11:18:21;3.47;;;3.10;;
76346;SDS011;73309;48.818;9.806;2023-11-22T11:20:48;4.50;;;3.40;;
76346;SDS011;73309;48.818;9.806;2023-11-22T11:23:13;3.77;;;3.47;;
76346;SDS011;73309;48.818;9.806;2023-11-22T11:25:39;3.50;;;3.20;;
76346;SDS011;73309;48.818;9.806;2023-11-22T11:28:07;3.17;;;2.87;;
76346;SDS011;73309;48.818;9.806;2023-11-22T11:30:45;3.30;;;2.73;;
76346;SDS011;73309;48.818;9.806;2023-11-22T11:33:11;3.50;;;3.00;;
76346;SDS011;73309;48.818;9.806;2023-11-22T11:35:37;3.30;;;3.00;;
76346;SDS011;73309;48.818;9.806;2023-11-22T11:38:03;4.03;;;3.00;;
76346;SDS011;73309;48.818;9.806;2023-11-22T11:40:31;3.40;;;3.10;;
76346;SDS011;73309;48.818;9.806;2023-11-22T11:42:57;4.60;;;3.37;;
76346;SDS011;73309;48.818;9.806;2023-11-22T11:45:25;4.27;;;3.23;;
76346;SDS011;73309;48.818;9.806;2023-11-22T11:47:52;3.80;;;3.50;;
76346;SDS011;73309;48.818;9.806;2023-11-22T11:50:17;4.27;;;3.87;;
76346;SDS011;73309;48.818;9.806;2023-11-22T11:52:45;4.73;;;2.87;;
76346;SDS011;73309;48.818;9.806;2023-11-22T11:55:10;3.67;;;3.37;;
76346;SDS011;73309;48.818;9.806;2023-11-22T11:57:39;3.30;;;3.00;;
76346;SDS011;73309;48.818;9.806;2023-11-22T12:00:05;3.60;;;3.30;;
76346;SDS011;73309;48.818;9.806;2023-11-22T12:02:32;3.50;;;3.20;;
76346;SDS011;73309;48.818;9.806;2023-11-22T12:04:57;4.23;;;3.83;;
76346;SDS011;73309;48.818;9.806;2023-11-22T12:07:23;4.47;;;3.30;;
76346;SDS011;73309;48.818;9.806;2023-11-22T12:09:50;3.77;;;3.33;;
76346;SDS011;73309;48.818;9.806;2023-11-22T12:12:15;4.53;;;3.37;;
76346;SDS011;73309;48.818;9.806;2023-11-22T12:14:41;3.63;;;2.93;;
76346;SDS011;73309;48.818;9.806;2023-11-22T12:17:06;4.50;;;3.37;;
76346;SDS011;73309;48.818;9.806;2023-11-22T12:19:33;5.53;;;3.83;;
76346;SDS011;73309;48.818;9.806;2023-11-22T12:21:58;4.33;;;3.17;;
76346;SDS011;73309;48.818;9.806;2023-11-22T12:24:24;4.00;;;3.60;;
76346;SDS011;73309;48.818;9.806;2023-11-22T12:26:49;4.00;;;3.57;;
76346;SDS011;73309;48.818;9.806;2023-11-22T12:29:15;4.07;;;3.23;;
76346;SDS011;73309;48.818;9.806;2023-11-22T12:31:43;3.77;;;3.33;;
76346;SDS011;73309;48.818;9.806;2023-11-22T12:34:09;3.60;;;3.30;;
76346;SDS011;73309;48.818;9.806;2023-11-22T12:36:36;4.13;;;3.53;;
76346;SDS011;73309;48.818;9.806;2023-11-22T12:39:02;3.50;;;3.20;;
76346;SDS011;73309;48.818;9.806;2023-11-22T12:41:27;4.70;;;3.70;;
76346;SDS011;73309;48.818;9.806;2023-11-22T12:44:01;4.97;;;3.87;;
76346;SDS011;73309;48.818;9.806;2023-11-22T12:46:27;3.27;;;2.97;;
76346;SDS011;73309;48.818;9.806;2023-11-22T12:49:04;3.80;;;3.50;;
76346;SDS011;73309;48.818;9.806;2023-11-22T12:51:30;4.27;;;3.87;;
76346;SDS011;73309;48.818;9.806;2023-11-22T12:53:56;3.73;;;3.37;;
76346;SDS011;73309;48.818;9.806;2023-11-22T12:56:22;3.73;;;3.30;;
76346;SDS011;73309;48.818;9.806;2023-11-22T12:58:47;4.90;;;4.07;;
76346;SDS011;73309;48.818;9.806;2023-11-22T13:01:13;3.60;;;3.30;;
76346;SDS011;73309;48.818;9.806;2023-11-22T13:03:38;4.97;;;3.27;;
76346;SDS011;73309;48.818;9.806;2023-11-22T13:06:03;4.23;;;3.30;;
76346;SDS011;73309;48.818;9.806;2023-11-22T13:08:29;3.70;;;3.40;;
76346;SDS011;73309;48.818;9.806;2023-11-22T13:10:56;3.83;;;3.53;;
76346;SDS011;73309;48.818;9.806;2023-11-22T13:13:21;3.60;;;3.30;;
76346;SDS011;73309;48.818;9.806;2023-11-22T13:15:47;3.97;;;3.57;;
76346;SDS011;73309;48.818;9.806;2023-11-22T13:18:12;4.50;;;4.10;;
76346;SDS011;73309;48.818;9.806;2023-11-22T13:20:38;4.50;;;3.30;;
76346;SDS011;73309;48.818;9.806;2023-11-22T13:23:03;3.70;;;3.40;;
76346;SDS011;73309;48.818;9.806;2023-11-22T13:25:28;3.93;;;3.53;;
76346;SDS011;73309;48.818;9.806;2023-11-22T13:27:55;3.40;;;3.10;;
76346;SDS011;73309;48.818;9.806;2023-11-22T13:30:21;4.47;;;3.73;;
76346;SDS011;73309;48.818;9.806;2023-11-22T13:32:46;4.70;;;4.07;;
76346;SDS011;73309;48.818;9.806;2023-11-22T13:35:11;3.60;;;3.27;;
76346;SDS011;73309;48.818;9.806;2023-11-22T13:37:37;3.57;;;3.20;;
76346;SDS011;73309;48.818;9.806;2023-11-22T13:40:02;4.10;;;3.53;;
76346;SDS011;73309;48.818;9.806;2023-11-22T13:42:28;3.73;;;3.43;;
76346;SDS011;73309;48.818;9.806;2023-11-22T13:44:55;5.43;;;3.47;;
76346;SDS011;73309;48.818;9.806;2023-11-22T13:47:20;4.70;;;3.70;;
76346;SDS011;73309;48.818;9.806;2023-11-22T13:49:46;4.00;;;3.43;;
76346;SDS011;73309;48.818;9.806;2023-11-22T13:52:11;3.47;;;3.17;;
76346;SDS011;73309;48.818;9.806;2023-11-22T13:54:36;4.73;;;3.43;;
76346;SDS011;73309;48.818;9.806;2023-11-22T13:57:02;3.93;;;3.53;;
76346;SDS011;73309;48.818;9.806;2023-11-22T13:59:27;3.87;;;3.40;;
76346;SDS011;73309;48.818;9.806;2023-11-22T14:01:54;4.40;;;2.90;;
76346;SDS011;73309;48.818;9.806;2023-11-22T14:04:19;3.20;;;2.90;;
76346;SDS011;73309;48.818;9.806;2023-11-22T14:06:45;4.50;;;2.80;;
76346;SDS011;73309;48.818;9.806;2023-11-22T14:09:10;3.57;;;3.23;;
76346;SDS011;73309;48.818;9.806;2023-11-22T14:11:36;3.77;;;3.43;;
76346;SDS011;73309;48.818;9.806;2023-11-22T14:14:01;5.07;;;3.20;;
76346;SDS011;73309;48.818;9.806;2023-11-22T14:16:26;4.60;;;4.20;;
76346;SDS011;73309;48.818;9.806;2023-11-22T14:18:53;3.67;;;3.37;;
76346;SDS011;73309;48.818;9.806;2023-11-22T14:21:18;4.50;;;3.63;;
76346;SDS011;73309;48.818;9.806;2023-11-22T14:23:44;3.97;;;3.50;;
76346;SDS011;73309;48.818;9.806;2023-11-22T14:26:09;4.30;;;3.90;;
76346;SDS011;73309;48.818;9.806;2023-11-22T14:28:35;4.13;;;3.50;;
76346;SDS011;73309;48.818;9.806;2023-11-22T14:31:00;3.17;;;2.87;;
76346;SDS011;73309;48.818;9.806;2023-11-22T14:33:25;4.40;;;3.60;;
76346;SDS011;73309;48.818;9.806;2023-11-22T14:35:52;4.40;;;3.53;;
76346;SDS011;73309;48.818;9.806;2023-11-22T14:38:17;5.50;;;4.07;;
76346;SDS011;73309;48.818;9.806;2023-11-22T14:40:43;3.97;;;3.57;;